createdAt,value
2023-11-23T00:00:11.903Z,101404.22
2023-11-23T00:02:41.102Z,101404.06
2023-11-23T00:05:11.198Z,101419.72
2023-11-23T00:07:40.784Z,101424.38
2023-11-23T00:10:12.189Z,101422.72
2023-11-23T00:12:42.220Z,101410.63
2023-11-23T00:15:11.121Z,101417.00
2023-11-23T00:17:39.543Z,101400.47
2023-11-23T00:20:10.317Z,101395.88
2023-11-23T00:22:40.160Z,101388.34
2023-11-23T00:25:13.307Z,101395.91
2023-11-23T00:27:41.981Z,101394.69
2023-11-23T00:30:11.036Z,101391.25
2023-11-23T00:32:40.138Z,101399.78
2023-11-23T00:35:09.345Z,101406.88
2023-11-23T00:37:37.639Z,101408.69
2023-11-23T00:40:08.527Z,101393.22
2023-11-23T00:42:36.525Z,101390.25
2023-11-23T00:45:05.941Z,101385.25
2023-11-23T00:47:34.272Z,101388.06
2023-11-23T00:50:03.500Z,101377.03
2023-11-23T00:52:31.915Z,101381.84
2023-11-23T00:55:00.446Z,101386.19
2023-11-23T00:57:29.758Z,101387.69
2023-11-23T00:59:57.718Z,101380.69
2023-11-23T01:02:26.225Z,101391.63
2023-11-23T01:04:54.040Z,101397.34
2023-11-23T01:07:22.430Z,101404.06
2023-11-23T01:09:50.663Z,101388.84
2023-11-23T01:12:18.995Z,101388.19
2023-11-23T01:14:49.064Z,101379.72
2023-11-23T01:17:17.354Z,101373.34
2023-11-23T01:19:46.438Z,101372.69
2023-11-23T01:22:15.230Z,101368.44
2023-11-23T01:24:43.430Z,101384.19
2023-11-23T01:27:11.628Z,101385.63
2023-11-23T01:29:39.649Z,101389.97
2023-11-23T01:32:10.509Z,101385.66
2023-11-23T01:34:38.963Z,101389.50
2023-11-23T01:37:07.012Z,101394.66
2023-11-23T01:39:35.291Z,101371.13
2023-11-23T01:42:04.243Z,101373.97
2023-11-23T01:44:32.611Z,101381.84
2023-11-23T01:47:00.843Z,101377.75
2023-11-23T01:49:30.556Z,101365.75
2023-11-23T01:51:58.837Z,101370.75
2023-11-23T01:54:27.294Z,101370.94
2023-11-23T01:56:55.655Z,101363.91
2023-11-23T01:59:24.178Z,101368.31
2023-11-23T02:01:52.428Z,101370.38
2023-11-23T02:04:20.635Z,101370.66
2023-11-23T02:06:50.444Z,101366.66
2023-11-23T02:09:19.163Z,101361.94
2023-11-23T02:11:47.313Z,101359.06
2023-11-23T02:14:15.656Z,101355.16
2023-11-23T02:16:43.908Z,101345.63
2023-11-23T02:19:12.521Z,101335.44
2023-11-23T02:21:41.812Z,101338.94
2023-11-23T02:24:12.868Z,101337.09
2023-11-23T02:26:41.195Z,101340.44
2023-11-23T02:29:09.443Z,101327.09
2023-11-23T02:31:37.659Z,101338.22
2023-11-23T02:34:05.785Z,101341.13
2023-11-23T02:36:33.993Z,101345.38
2023-11-23T02:39:02.350Z,101349.28
2023-11-23T02:41:32.027Z,101350.44
2023-11-23T02:44:00.405Z,101332.78
2023-11-23T02:46:29.604Z,101338.06
2023-11-23T02:48:57.657Z,101344.91
2023-11-23T02:51:26.463Z,101341.06
2023-11-23T02:53:54.890Z,101356.25
2023-11-23T02:56:25.010Z,101346.38
2023-11-23T02:58:55.541Z,101336.00
2023-11-23T03:01:24.537Z,101336.56
2023-11-23T03:03:56.223Z,101311.84
2023-11-23T03:06:24.581Z,101309.63
2023-11-23T03:08:53.097Z,101302.47
2023-11-23T03:11:21.970Z,101297.56
2023-11-23T03:13:50.891Z,101306.47
2023-11-23T03:16:20.825Z,101306.38
2023-11-23T03:18:49.432Z,101308.59
2023-11-23T03:21:17.978Z,101311.91
2023-11-23T03:23:47.086Z,101299.50
2023-11-23T03:26:15.361Z,101294.50
2023-11-23T03:28:43.691Z,101289.19
2023-11-23T03:31:11.797Z,101294.41
2023-11-23T03:33:42.602Z,101291.66
2023-11-23T03:36:11.631Z,101285.09
2023-11-23T03:38:39.628Z,101282.53
2023-11-23T03:41:07.873Z,101282.22
2023-11-23T03:43:36.221Z,101264.22
2023-11-23T03:46:04.854Z,101259.63
2023-11-23T03:48:33.236Z,101271.91
2023-11-23T03:51:03.623Z,101275.50
2023-11-23T03:53:31.683Z,101268.66
2023-11-23T03:56:00.024Z,101269.53
2023-11-23T03:58:28.623Z,101266.78
2023-11-23T04:00:56.629Z,101273.13
2023-11-23T04:03:24.924Z,101269.97
2023-11-23T04:05:53.409Z,101274.28
2023-11-23T04:08:24.759Z,101273.94
2023-11-23T04:10:53.083Z,101270.13
2023-11-23T04:13:21.105Z,101275.88
2023-11-23T04:15:49.106Z,101281.06
2023-11-23T04:18:17.240Z,101284.25
2023-11-23T04:20:45.792Z,101284.88
2023-11-23T04:23:14.942Z,101292.56
2023-11-23T04:25:44.637Z,101286.38
2023-11-23T04:28:13.029Z,101291.56
2023-11-23T04:30:41.296Z,101283.97
2023-11-23T04:33:09.433Z,101295.44
2023-11-23T04:35:37.762Z,101285.06
2023-11-23T04:38:06.046Z,101286.50
2023-11-23T04:40:34.272Z,101293.13
2023-11-23T04:43:03.834Z,101299.34
2023-11-23T04:45:32.250Z,101295.25
2023-11-23T04:48:00.661Z,101304.59
2023-11-23T04:50:29.129Z,101297.19
2023-11-23T04:52:58.412Z,101304.72
2023-11-23T04:55:29.307Z,101301.22
2023-11-23T04:57:58.154Z,101310.19
2023-11-23T05:00:28.001Z,101297.34
2023-11-23T05:02:56.360Z,101301.69
2023-11-23T05:05:24.796Z,101304.78
2023-11-23T05:07:52.849Z,101305.41
2023-11-23T05:10:22.028Z,101305.41
2023-11-23T05:12:52.581Z,101310.88
2023-11-23T05:15:20.989Z,101307.78
2023-11-23T05:17:50.533Z,101317.09
2023-11-23T05:20:20.014Z,101320.94
2023-11-23T05:22:48.241Z,101321.56
2023-11-23T05:25:16.625Z,101333.69
2023-11-23T05:27:44.656Z,101323.66
2023-11-23T05:30:14.282Z,101321.94
2023-11-23T05:32:42.666Z,101319.38
2023-11-23T05:35:14.055Z,101317.88
2023-11-23T05:37:42.208Z,101314.25
2023-11-23T05:40:13.341Z,101315.91
2023-11-23T05:42:47.924Z,101308.34
2023-11-23T05:45:22.277Z,101317.53
2023-11-23T05:47:50.596Z,101325.75
2023-11-23T05:50:20.389Z,101317.41
2023-11-23T05:52:48.554Z,101315.41
2023-11-23T05:55:17.603Z,101315.09
2023-11-23T05:57:45.888Z,101314.78
2023-11-23T06:00:15.508Z,101326.91
2023-11-23T06:02:44.086Z,101326.63
2023-11-23T06:05:12.637Z,101316.72
2023-11-23T06:07:42.245Z,101324.03
2023-11-23T06:10:12.974Z,101316.94
2023-11-23T06:12:41.592Z,101320.13
2023-11-23T06:15:10.644Z,101320.03
2023-11-23T06:17:39.057Z,101327.91
2023-11-23T06:20:09.693Z,101331.63
2023-11-23T06:22:37.798Z,101322.84
2023-11-23T06:25:08.675Z,101329.44
2023-11-23T06:27:37.099Z,101327.41
2023-11-23T06:30:06.782Z,101329.31
2023-11-23T06:32:34.992Z,101328.69
2023-11-23T06:35:03.250Z,101320.69
2023-11-23T06:37:31.494Z,101325.34
2023-11-23T06:39:59.841Z,101330.00
2023-11-23T06:42:29.200Z,101322.19
2023-11-23T06:44:58.157Z,101317.03
2023-11-23T06:47:26.508Z,101310.09
2023-11-23T06:49:54.864Z,101309.28
2023-11-23T06:52:23.169Z,101293.50
2023-11-23T06:54:51.520Z,101295.41
2023-11-23T06:57:20.123Z,101301.59
2023-11-23T06:59:49.539Z,101297.38
2023-11-23T07:02:17.948Z,101291.09
2023-11-23T07:04:46.338Z,101293.66
2023-11-23T07:07:14.379Z,101295.41
2023-11-23T07:09:42.482Z,101294.91
2023-11-23T07:12:11.375Z,101292.66
2023-11-23T07:14:42.276Z,101287.94
2023-11-23T07:17:11.818Z,101297.63
2023-11-23T07:19:40.767Z,101305.59
2023-11-23T07:22:08.734Z,101317.31
2023-11-23T07:24:37.101Z,101307.28
2023-11-23T07:27:05.856Z,101301.00
2023-11-23T07:29:34.124Z,101296.69
2023-11-23T07:32:02.351Z,101298.53
2023-11-23T07:34:31.680Z,101286.63
2023-11-23T07:36:59.942Z,101291.56
2023-11-23T07:39:28.006Z,101295.34
2023-11-23T07:41:56.209Z,101297.88
2023-11-23T07:44:24.516Z,101297.75
2023-11-23T07:46:52.822Z,101297.41
2023-11-23T07:49:20.874Z,101296.97
2023-11-23T07:51:50.714Z,101289.84
2023-11-23T07:54:19.239Z,101290.16
2023-11-23T07:56:47.852Z,101283.13
2023-11-23T07:59:16.170Z,101286.47
2023-11-23T08:01:44.496Z,101281.53
2023-11-23T08:04:12.995Z,101278.91
2023-11-23T08:06:41.154Z,101274.47
2023-11-23T08:09:17.468Z,101275.53
2023-11-23T08:11:45.559Z,101264.38
2023-11-23T08:14:14.354Z,101271.66
2023-11-23T08:16:42.558Z,101268.19
2023-11-23T08:19:10.878Z,101266.50
2023-11-23T08:21:41.179Z,101262.56
2023-11-23T08:24:11.338Z,101255.41
2023-11-23T08:26:39.376Z,101252.16
2023-11-23T08:29:08.003Z,101253.16
2023-11-23T08:31:36.545Z,101250.78
2023-11-23T08:34:05.215Z,101249.13
2023-11-23T08:36:33.262Z,101238.22
2023-11-23T08:39:01.729Z,101241.81
2023-11-23T08:41:31.994Z,101226.38
2023-11-23T08:44:01.113Z,101232.53
2023-11-23T08:46:29.305Z,101232.38
2023-11-23T08:48:57.729Z,101240.09
2023-11-23T08:51:26.075Z,101238.56
2023-11-23T08:53:54.354Z,101239.81
2023-11-23T08:56:23.856Z,101239.59
2023-11-23T08:58:53.518Z,101238.31
2023-11-23T09:01:21.568Z,101237.53
2023-11-23T09:03:50.346Z,101243.13
2023-11-23T09:06:19.870Z,101230.19
2023-11-23T09:08:49.719Z,101239.41
2023-11-23T09:11:18.198Z,101234.59
2023-11-23T09:13:46.246Z,101227.88
2023-11-23T09:16:16.025Z,101236.66
2023-11-23T09:18:45.142Z,101226.84
2023-11-23T09:21:13.527Z,101220.81
2023-11-23T09:23:42.190Z,101218.84
2023-11-23T09:26:10.306Z,101213.72
2023-11-23T09:28:38.590Z,101205.25
2023-11-23T09:31:09.653Z,101200.78
2023-11-23T09:33:39.170Z,101199.66
2023-11-23T09:36:07.639Z,101200.25
2023-11-23T09:38:36.485Z,101206.09
2023-11-23T09:41:09.194Z,101205.22
2023-11-23T09:43:37.444Z,101207.69
2023-11-23T09:46:07.480Z,101207.50
2023-11-23T09:48:38.858Z,101202.19
2023-11-23T09:51:12.105Z,101199.09
2023-11-23T09:53:44.624Z,101199.25
2023-11-23T09:56:12.768Z,101195.13
2023-11-23T09:58:40.750Z,101183.16
2023-11-23T10:01:10.306Z,101183.00
2023-11-23T10:03:42.079Z,101179.38
2023-11-23T10:06:12.544Z,101176.66
2023-11-23T10:08:42.238Z,101177.50
2023-11-23T10:11:10.524Z,101158.66
2023-11-23T10:13:38.741Z,101156.22
2023-11-23T10:16:07.396Z,101158.53
2023-11-23T10:18:39.033Z,101151.00
2023-11-23T10:21:07.522Z,101157.41
2023-11-23T10:23:36.970Z,101161.25
2023-11-23T10:26:05.026Z,101154.91
2023-11-23T10:28:33.095Z,101147.50
2023-11-23T10:31:05.379Z,101142.72
2023-11-23T10:33:36.639Z,101125.34
2023-11-23T10:36:06.581Z,101123.59
2023-11-23T10:38:44.059Z,101122.59
2023-11-23T10:41:15.810Z,101115.16
2023-11-23T10:43:46.809Z,101112.44
2023-11-23T10:46:15.596Z,101108.16
2023-11-23T10:48:46.096Z,101103.34
2023-11-23T10:51:17.509Z,101095.81
2023-11-23T10:53:47.391Z,101090.31
2023-11-23T10:56:20.326Z,101084.25
2023-11-23T10:58:51.732Z,101083.38
2023-11-23T11:01:23.659Z,101079.78
2023-11-23T11:03:52.796Z,101084.56
2023-11-23T11:06:22.927Z,101077.44
2023-11-23T11:08:53.080Z,101062.81
2023-11-23T11:11:23.544Z,101062.09
2023-11-23T11:14:00.432Z,101074.94
2023-11-23T11:16:34.843Z,101072.94
2023-11-23T11:19:08.010Z,101049.81
2023-11-23T11:21:43.787Z,101047.16
2023-11-23T11:24:20.838Z,101033.72
2023-11-23T11:26:50.331Z,101033.56
2023-11-23T11:29:19.377Z,101036.47
2023-11-23T11:31:50.358Z,101034.03
2023-11-23T11:34:20.545Z,101025.41
2023-11-23T11:36:53.113Z,101018.47
2023-11-23T11:39:23.493Z,101005.03
2023-11-23T11:42:00.558Z,100995.63
2023-11-23T11:44:30.281Z,100989.75
2023-11-23T11:46:58.562Z,100988.22
2023-11-23T11:49:26.892Z,100983.47
2023-11-23T11:51:55.593Z,100984.25
2023-11-23T11:54:26.834Z,100990.97
2023-11-23T11:56:55.298Z,100978.47
2023-11-23T11:59:26.174Z,100978.16
2023-11-23T12:01:55.064Z,100979.25
2023-11-23T12:04:23.406Z,100968.25
2023-11-23T12:06:51.791Z,100967.84
2023-11-23T12:09:31.041Z,100967.47
2023-11-23T12:12:11.450Z,100956.13
2023-11-23T12:14:40.163Z,100953.97
2023-11-23T12:17:11.600Z,100947.81
2023-11-23T12:19:50.800Z,100947.19
2023-11-23T12:22:22.163Z,100944.00
2023-11-23T12:24:50.305Z,100939.69
2023-11-23T12:27:22.145Z,100938.44
2023-11-23T12:29:50.782Z,100938.94
2023-11-23T12:32:18.968Z,100924.84
2023-11-23T12:34:47.030Z,100925.69
2023-11-23T12:37:15.828Z,100909.03
2023-11-23T12:39:43.987Z,100910.28
2023-11-23T12:42:12.320Z,100903.28
2023-11-23T12:44:42.140Z,100899.44
2023-11-23T12:47:10.535Z,100893.19
2023-11-23T12:49:38.655Z,100894.88
2023-11-23T12:52:08.966Z,100895.94
2023-11-23T12:54:37.245Z,100883.06
2023-11-23T12:57:05.931Z,100880.41
2023-11-23T12:59:34.195Z,100870.94
2023-11-23T13:02:22.512Z,100862.88
2023-11-23T13:04:50.839Z,100862.53
2023-11-23T13:07:19.167Z,100864.38
2023-11-23T13:09:49.720Z,100852.88
2023-11-23T13:12:19.110Z,100847.31
2023-11-23T13:14:48.725Z,100835.41
2023-11-23T13:17:19.880Z,100835.88
2023-11-23T13:19:49.202Z,100832.22
2023-11-23T13:22:18.567Z,100839.34
2023-11-23T13:24:48.551Z,100837.03
2023-11-23T13:27:18.281Z,100830.44
2023-11-23T13:29:48.642Z,100824.66
2023-11-23T13:32:20.407Z,100816.91
2023-11-23T13:34:50.630Z,100804.22
2023-11-23T13:37:20.584Z,100809.34
2023-11-23T13:39:49.535Z,100809.97
2023-11-23T13:42:18.750Z,100804.84
2023-11-23T13:44:47.872Z,100794.31
2023-11-23T13:47:16.158Z,100783.00
2023-11-23T13:49:46.104Z,100776.34
2023-11-23T13:52:14.722Z,100765.25
2023-11-23T13:54:52.037Z,100762.41
2023-11-23T13:57:20.750Z,100764.09
2023-11-23T13:59:50.577Z,100750.25
2023-11-23T14:02:20.995Z,100740.91
2023-11-23T14:04:50.910Z,100746.66
2023-11-23T14:07:19.685Z,100736.25
2023-11-23T14:09:48.129Z,100738.03
2023-11-23T14:12:17.407Z,100730.16
2023-11-23T14:14:49.128Z,100733.56
2023-11-23T14:17:19.579Z,100733.06
2023-11-23T14:19:52.554Z,100727.50
2023-11-23T14:22:22.120Z,100715.50
2023-11-23T14:24:51.649Z,100712.63
2023-11-23T14:27:21.780Z,100710.75
2023-11-23T14:29:51.691Z,100715.19
2023-11-23T14:32:21.527Z,100699.53
2023-11-23T14:34:53.144Z,100703.06
2023-11-23T14:37:24.259Z,100693.69
2023-11-23T14:39:53.621Z,100698.84
2023-11-23T14:42:23.052Z,100707.47
2023-11-23T14:44:54.949Z,100704.94
2023-11-23T14:47:28.628Z,100704.41
2023-11-23T14:49:58.779Z,100698.53
2023-11-23T14:52:29.394Z,100697.13
2023-11-23T14:55:01.682Z,100687.69
2023-11-23T14:57:32.227Z,100695.13
2023-11-23T15:00:04.409Z,100698.84
2023-11-23T15:02:34.686Z,100687.97
2023-11-23T15:05:06.951Z,100683.53
2023-11-23T15:07:40.921Z,100674.59
2023-11-23T15:10:14.013Z,100671.31
2023-11-23T15:12:44.715Z,100668.66
2023-11-23T15:15:14.758Z,100669.38
2023-11-23T15:17:44.301Z,100660.88
2023-11-23T15:20:16.145Z,100652.78
2023-11-23T15:22:45.547Z,100658.88
2023-11-23T15:25:14.841Z,100653.78
2023-11-23T15:27:47.000Z,100649.28
2023-11-23T15:30:17.400Z,100639.97
2023-11-23T15:32:46.966Z,100633.91
2023-11-23T15:35:18.104Z,100640.28
2023-11-23T15:37:50.070Z,100635.19
2023-11-23T15:40:20.882Z,100635.81
2023-11-23T15:42:52.401Z,100636.75
2023-11-23T15:45:22.192Z,100633.28
2023-11-23T15:47:51.795Z,100622.94
2023-11-23T15:50:26.626Z,100624.84
2023-11-23T15:52:58.370Z,100622.66
2023-11-23T15:55:29.037Z,100618.09
2023-11-23T15:57:58.429Z,100626.47
2023-11-23T16:00:28.596Z,100617.34
2023-11-23T16:02:59.004Z,100612.25
2023-11-23T16:05:31.514Z,100614.06
2023-11-23T16:08:01.571Z,100615.84
2023-11-23T16:10:31.853Z,100615.31
2023-11-23T16:13:01.886Z,100611.78
2023-11-23T16:15:33.472Z,100601.81
2023-11-23T16:18:07.279Z,100614.91
2023-11-23T16:20:39.185Z,100605.97
2023-11-23T16:23:10.787Z,100608.97
2023-11-23T16:25:41.101Z,100606.94
2023-11-23T16:28:10.629Z,100609.91
2023-11-23T16:30:41.460Z,100605.13
2023-11-23T16:33:11.658Z,100607.69
2023-11-23T16:35:43.268Z,100615.34
2023-11-23T16:38:12.985Z,100609.63
2023-11-23T16:40:43.051Z,100605.06
2023-11-23T16:43:13.104Z,100598.47
2023-11-23T16:45:43.109Z,100592.81
2023-11-23T16:48:13.267Z,100585.06
2023-11-23T16:50:50.298Z,100586.97
2023-11-23T16:53:20.940Z,100581.31
2023-11-23T16:55:52.699Z,100585.88
2023-11-23T16:58:22.042Z,100580.69
2023-11-23T17:00:51.893Z,100585.88
2023-11-23T17:03:22.191Z,100583.78
2023-11-23T17:05:54.954Z,100585.81
2023-11-23T17:08:25.583Z,100574.44
2023-11-23T17:10:55.968Z,100568.78
2023-11-23T17:13:26.540Z,100570.41
2023-11-23T17:15:56.778Z,100569.38
2023-11-23T17:18:27.910Z,100562.22
2023-11-23T17:20:59.692Z,100553.72
2023-11-23T17:23:31.591Z,100547.66
2023-11-23T17:26:01.095Z,100546.63
2023-11-23T17:28:31.474Z,100541.09
2023-11-23T17:31:01.768Z,100536.31
2023-11-23T17:33:33.907Z,100533.34
2023-11-23T17:36:06.528Z,100516.13
2023-11-23T17:38:37.172Z,100497.44
2023-11-23T17:41:10.758Z,100498.94
2023-11-23T17:43:41.609Z,100498.00
2023-11-23T17:46:11.420Z,100493.00
2023-11-23T17:48:41.589Z,100479.97
2023-11-23T17:51:14.715Z,100485.69
2023-11-23T17:53:44.940Z,100481.34
2023-11-23T17:56:16.569Z,100469.88
2023-11-23T17:58:48.736Z,100463.19
2023-11-23T18:01:20.997Z,100458.44
2023-11-23T18:03:50.686Z,100453.88
2023-11-23T18:06:22.384Z,100450.47
2023-11-23T18:08:52.771Z,100448.75
2023-11-23T18:11:22.967Z,100441.88
2023-11-23T18:13:54.198Z,100439.75
2023-11-23T18:16:23.329Z,100432.84
2023-11-23T18:18:54.123Z,100425.31
2023-11-23T18:21:25.729Z,100421.69
2023-11-23T18:23:57.647Z,100426.91
2023-11-23T18:26:29.346Z,100425.97
2023-11-23T18:28:59.629Z,100422.75
2023-11-23T18:31:33.730Z,100422.66
2023-11-23T18:34:05.837Z,100418.81
2023-11-23T18:36:39.183Z,100417.66
2023-11-23T18:39:14.819Z,100414.72
2023-11-23T18:41:45.154Z,100406.63
2023-11-23T18:44:15.895Z,100413.00
2023-11-23T18:46:47.928Z,100413.97
2023-11-23T18:49:20.580Z,100412.25
2023-11-23T18:51:52.770Z,100408.03
2023-11-23T18:54:25.616Z,100406.75
2023-11-23T18:56:56.956Z,100401.97
2023-11-23T18:59:30.101Z,100410.78
2023-11-23T19:02:01.475Z,100415.00
2023-11-23T19:04:32.026Z,100401.22
2023-11-23T19:07:03.351Z,100397.81
2023-11-23T19:09:34.552Z,100395.28
2023-11-23T19:12:06.238Z,100392.16
2023-11-23T19:14:35.903Z,100393.66
2023-11-23T19:17:06.300Z,100394.00
2023-11-23T19:19:38.842Z,100385.63
2023-11-23T19:22:27.537Z,100383.06
2023-11-23T19:24:57.860Z,100383.00
2023-11-23T19:27:29.329Z,100378.00
2023-11-23T19:30:01.863Z,100366.97
2023-11-23T19:32:34.167Z,100363.78
2023-11-23T19:35:10.758Z,100352.63
2023-11-23T19:37:45.089Z,100334.91
2023-11-23T19:40:19.869Z,100332.16
2023-11-23T19:42:52.798Z,100321.22
2023-11-23T19:45:25.514Z,100308.09
2023-11-23T19:47:57.682Z,100306.16
2023-11-23T19:50:30.714Z,100309.66
2023-11-23T19:53:05.880Z,100305.00
2023-11-23T19:55:36.596Z,100301.41
2023-11-23T19:58:08.141Z,100302.06
2023-11-23T20:00:40.685Z,100307.78
2023-11-23T20:03:12.392Z,100290.69
2023-11-23T20:05:43.168Z,100297.38
2023-11-23T20:08:16.209Z,100276.06
2023-11-23T20:10:47.236Z,100274.69
2023-11-23T20:13:17.968Z,100263.97
2023-11-23T20:15:49.796Z,100264.44
2023-11-23T20:18:21.287Z,100241.06
2023-11-23T20:20:53.990Z,100239.81
2023-11-23T20:23:25.238Z,100238.28
2023-11-23T20:25:55.476Z,100230.38
2023-11-23T20:28:26.242Z,100234.41
2023-11-23T20:30:56.534Z,100234.50
2023-11-23T20:33:26.935Z,100224.13
2023-11-23T20:35:57.525Z,100224.22
2023-11-23T20:38:34.812Z,100219.44
2023-11-23T20:41:08.393Z,100219.22
2023-11-23T20:43:39.720Z,100224.66
2023-11-23T20:46:13.083Z,100225.03
2023-11-23T20:48:43.403Z,100215.72
2023-11-23T20:51:15.040Z,100215.00
2023-11-23T20:53:46.607Z,100214.06
2023-11-23T20:56:18.251Z,100209.78
2023-11-23T20:58:50.149Z,100203.81
2023-11-23T21:01:22.626Z,100199.41
2023-11-23T21:03:53.366Z,100186.25
2023-11-23T21:06:26.498Z,100171.28
2023-11-23T21:08:58.922Z,100171.09
2023-11-23T21:11:29.364Z,100180.31
2023-11-23T21:13:59.619Z,100163.16
2023-11-23T21:16:30.680Z,100161.88
2023-11-23T21:19:00.875Z,100155.00
2023-11-23T21:21:31.044Z,100153.88
2023-11-23T21:24:02.268Z,100156.34
2023-11-23T21:26:33.723Z,100142.25
2023-11-23T21:29:03.138Z,100134.41
2023-11-23T21:31:33.420Z,100128.44
2023-11-23T21:34:03.410Z,100124.94
2023-11-23T21:36:35.841Z,100121.66
2023-11-23T21:39:09.726Z,100124.69
2023-11-23T21:41:39.868Z,100110.56
2023-11-23T21:44:09.889Z,100115.84
2023-11-23T21:46:40.452Z,100107.22
2023-11-23T21:49:09.856Z,100100.56
2023-11-23T21:51:39.468Z,100096.66
2023-11-23T21:54:11.282Z,100097.41
2023-11-23T21:56:40.312Z,100088.59
2023-11-23T21:59:09.713Z,100088.16
2023-11-23T22:01:38.407Z,100089.56
2023-11-23T22:04:07.308Z,100084.03
2023-11-23T22:06:35.735Z,100085.50
2023-11-23T22:09:04.340Z,100067.91
2023-11-23T22:11:33.874Z,100063.22
2023-11-23T22:14:02.232Z,100052.25
2023-11-23T22:16:30.663Z,100042.66
2023-11-23T22:18:59.287Z,100031.75
2023-11-23T22:21:28.214Z,100026.81
2023-11-23T22:23:56.928Z,100024.34
2023-11-23T22:26:25.619Z,100014.34
2023-11-23T22:28:56.568Z,100018.56
2023-11-23T22:31:27.503Z,100004.88
2023-11-23T22:33:56.330Z,100000.69
2023-11-23T22:36:25.537Z,99987.78
2023-11-23T22:38:55.296Z,99985.53
2023-11-23T22:41:24.824Z,99981.91
2023-11-23T22:43:53.183Z,99978.84
2023-11-23T22:46:23.514Z,99970.91
2023-11-23T22:48:52.147Z,99970.66
2023-11-23T22:51:20.600Z,99977.88
2023-11-23T22:53:48.621Z,99973.19
2023-11-23T22:56:17.152Z,99966.00
2023-11-23T22:58:45.433Z,99956.94
2023-11-23T23:01:14.854Z,99942.47
2023-11-23T23:03:45.128Z,99936.56
2023-11-23T23:06:13.720Z,99939.81
2023-11-23T23:08:41.815Z,99937.66
2023-11-23T23:11:11.481Z,99933.53
2023-11-23T23:13:40.013Z,99921.53
2023-11-23T23:16:08.696Z,99918.16
2023-11-23T23:18:36.936Z,99916.94
2023-11-23T23:21:06.945Z,99916.19
2023-11-23T23:23:34.960Z,99909.19
2023-11-23T23:26:03.936Z,99902.19
2023-11-23T23:28:32.865Z,99899.31
2023-11-23T23:31:01.711Z,99888.59
2023-11-23T23:33:30.108Z,99875.88
2023-11-23T23:35:59.301Z,99870.84
2023-11-23T23:38:28.904Z,99868.25
2023-11-23T23:40:56.937Z,99856.66
2023-11-23T23:43:26.041Z,99854.75
2023-11-23T23:45:54.809Z,99852.09
2023-11-23T23:48:22.914Z,99840.03
2023-11-23T23:50:51.709Z,99837.53
2023-11-23T23:53:19.904Z,99827.97
2023-11-23T23:55:49.842Z,99812.06
2023-11-23T23:58:18.210Z,99813.28
